sensor_id;sensor_type;location;lat;lon;timestamp;P1;durP1;ratioP1;P2;durP2;ratioP2
15454;SDS011;21057;51.024;7.540;2023-02-28T00:00:00;20.43;;;19.23;;
15454;SDS011;21057;51.024;7.540;2023-02-28T00:02:33;21.07;;;19.57;;
15454;SDS011;21057;51.024;7.540;2023-02-28T00:05:01;20.53;;;19.23;;
15454;SDS011;21057;51.024;7.540;2023-02-28T00:07:28;20.77;;;19.57;;
15454;SDS011;21057;51.024;7.540;2023-02-28T00:09:56;20.90;;;19.60;;
15454;SDS011;21057;51.024;7.540;2023-02-28T00:12:24;21.10;;;19.70;;
15454;SDS011;21057;51.024;7.540;2023-02-28T00:14:51;20.53;;;19.33;;
15454;SDS011;21057;51.024;7.540;2023-02-28T00:17:18;20.73;;;19.43;;
15454;SDS011;21057;51.024;7.540;2023-02-28T00:19:47;20.70;;;19.50;;
15454;SDS011;21057;51.024;7.540;2023-02-28T00:22:14;20.43;;;19.17;;
15454;SDS011;21057;51.024;7.540;2023-02-28T00:24:42;20.50;;;19.30;;
15454;SDS011;21057;51.024;7.540;2023-02-28T00:27:11;20.70;;;19.50;;
15454;SDS011;21057;51.024;7.540;2023-02-28T00:29:38;20.47;;;19.17;;
15454;SDS011;21057;51.024;7.540;2023-02-28T00:32:06;20.63;;;19.33;;
15454;SDS011;21057;51.024;7.540;2023-02-28T00:34:33;20.17;;;18.97;;
15454;SDS011;21057;51.024;7.540;2023-02-28T00:37:04;20.87;;;19.57;;
15454;SDS011;21057;51.024;7.540;2023-02-28T00:39:33;21.20;;;19.90;;
15454;SDS011;21057;51.024;7.540;2023-02-28T00:42:01;21.37;;;19.70;;
15454;SDS011;21057;51.024;7.540;2023-02-28T00:44:30;20.13;;;18.93;;
15454;SDS011;21057;51.024;7.540;2023-02-28T00:46:57;20.53;;;19.33;;
15454;SDS011;21057;51.024;7.540;2023-02-28T00:49:27;20.60;;;19.30;;
15454;SDS011;21057;51.024;7.540;2023-02-28T00:51:54;20.73;;;19.47;;
15454;SDS011;21057;51.024;7.540;2023-02-28T00:54:21;21.20;;;19.80;;
15454;SDS011;21057;51.024;7.540;2023-02-28T00:56:48;20.50;;;19.20;;
15454;SDS011;21057;51.024;7.540;2023-02-28T00:59:16;20.57;;;19.37;;
15454;SDS011;21057;51.024;7.540;2023-02-28T01:01:46;20.90;;;19.60;;
15454;SDS011;21057;51.024;7.540;2023-02-28T01:04:13;21.00;;;19.70;;
15454;SDS011;21057;51.024;7.540;2023-02-28T01:06:40;21.30;;;20.00;;
15454;SDS011;21057;51.024;7.540;2023-02-28T01:09:08;21.93;;;20.57;;
15454;SDS011;21057;51.024;7.540;2023-02-28T01:11:35;21.67;;;20.23;;
15454;SDS011;21057;51.024;7.540;2023-02-28T01:14:02;22.60;;;20.60;;
15454;SDS011;21057;51.024;7.540;2023-02-28T01:16:30;21.10;;;19.80;;
15454;SDS011;21057;51.024;7.540;2023-02-28T01:18:58;21.30;;;19.97;;
15454;SDS011;21057;51.024;7.540;2023-02-28T01:21:25;21.00;;;19.50;;
15454;SDS011;21057;51.024;7.540;2023-02-28T01:23:51;23.10;;;20.97;;
15454;SDS011;21057;51.024;7.540;2023-02-28T01:26:19;21.90;;;20.07;;
15454;SDS011;21057;51.024;7.540;2023-02-28T01:28:47;20.40;;;19.20;;
15454;SDS011;21057;51.024;7.540;2023-02-28T01:31:14;21.83;;;20.23;;
15454;SDS011;21057;51.024;7.540;2023-02-28T01:33:41;20.80;;;19.50;;
15454;SDS011;21057;51.024;7.540;2023-02-28T01:36:11;20.80;;;19.50;;
15454;SDS011;21057;51.024;7.540;2023-02-28T01:38:38;21.10;;;19.80;;
15454;SDS011;21057;51.024;7.540;2023-02-28T01:41:06;21.23;;;19.93;;
15454;SDS011;21057;51.024;7.540;2023-02-28T01:43:52;21.13;;;19.83;;
15454;SDS011;21057;51.024;7.540;2023-02-28T01:46:24;20.90;;;19.60;;
15454;SDS011;21057;51.024;7.540;2023-02-28T01:48:51;20.60;;;19.30;;
15454;SDS011;21057;51.024;7.540;2023-02-28T01:51:25;20.40;;;19.10;;
15454;SDS011;21057;51.024;7.540;2023-02-28T01:53:58;20.37;;;19.17;;
15454;SDS011;21057;51.024;7.540;2023-02-28T01:56:29;20.90;;;19.60;;
15454;SDS011;21057;51.024;7.540;2023-02-28T01:59:00;20.90;;;19.60;;
15454;SDS011;21057;51.024;7.540;2023-02-28T02:04:01;20.23;;;19.03;;
15454;SDS011;21057;51.024;7.540;2023-02-28T02:06:34;20.27;;;18.97;;
15454;SDS011;21057;51.024;7.540;2023-02-28T02:09:03;21.70;;;20.30;;
15454;SDS011;21057;51.024;7.540;2023-02-28T02:11:31;20.97;;;19.67;;
15454;SDS011;21057;51.024;7.540;2023-02-28T02:14:02;20.87;;;19.57;;
15454;SDS011;21057;51.024;7.540;2023-02-28T02:16:58;20.70;;;19.40;;
15454;SDS011;21057;51.024;7.540;2023-02-28T02:19:41;21.17;;;19.87;;
15454;SDS011;21057;51.024;7.540;2023-02-28T02:22:34;20.33;;;19.03;;
15454;SDS011;21057;51.024;7.540;2023-02-28T02:25:25;20.63;;;19.33;;
15454;SDS011;21057;51.024;7.540;2023-02-28T02:28:03;21.13;;;19.83;;
15454;SDS011;21057;51.024;7.540;2023-02-28T02:33:43;20.17;;;18.97;;
15454;SDS011;21057;51.024;7.540;2023-02-28T02:36:44;20.40;;;19.10;;
15454;SDS011;21057;51.024;7.540;2023-02-28T02:39:18;20.27;;;19.07;;
15454;SDS011;21057;51.024;7.540;2023-02-28T02:41:51;20.43;;;19.23;;
15454;SDS011;21057;51.024;7.540;2023-02-28T02:44:20;20.53;;;19.30;;
15454;SDS011;21057;51.024;7.540;2023-02-28T02:46:49;20.43;;;19.17;;
15454;SDS011;21057;51.024;7.540;2023-02-28T02:49:21;20.50;;;19.30;;
15454;SDS011;21057;51.024;7.540;2023-02-28T02:51:53;20.93;;;19.57;;
15454;SDS011;21057;51.024;7.540;2023-02-28T02:54:24;20.97;;;19.67;;
15454;SDS011;21057;51.024;7.540;2023-02-28T02:56:56;20.60;;;19.30;;
15454;SDS011;21057;51.024;7.540;2023-02-28T02:59:26;21.63;;;20.23;;
15454;SDS011;21057;51.024;7.540;2023-02-28T03:01:57;20.37;;;19.17;;
15454;SDS011;21057;51.024;7.540;2023-02-28T03:09:40;20.20;;;19.00;;
15454;SDS011;21057;51.024;7.540;2023-02-28T03:12:23;19.93;;;18.73;;
15454;SDS011;21057;51.024;7.540;2023-02-28T03:15:10;20.77;;;19.47;;
15454;SDS011;21057;51.024;7.540;2023-02-28T03:17:48;20.47;;;19.17;;
15454;SDS011;21057;51.024;7.540;2023-02-28T03:20:27;20.73;;;19.43;;
15454;SDS011;21057;51.024;7.540;2023-02-28T03:23:09;20.70;;;19.40;;
15454;SDS011;21057;51.024;7.540;2023-02-28T03:25:44;20.40;;;19.20;;
15454;SDS011;21057;51.024;7.540;2023-02-28T03:28:22;20.10;;;18.90;;
15454;SDS011;21057;51.024;7.540;2023-02-28T03:30:58;20.00;;;18.80;;
15454;SDS011;21057;51.024;7.540;2023-02-28T03:33:28;20.40;;;19.20;;
15454;SDS011;21057;51.024;7.540;2023-02-28T03:35:58;21.77;;;20.30;;
15454;SDS011;21057;51.024;7.540;2023-02-28T03:38:31;21.43;;;19.90;;
15454;SDS011;21057;51.024;7.540;2023-02-28T03:41:02;20.77;;;19.47;;
15454;SDS011;21057;51.024;7.540;2023-02-28T03:43:33;21.30;;;20.00;;
15454;SDS011;21057;51.024;7.540;2023-02-28T03:46:04;20.87;;;19.57;;
15454;SDS011;21057;51.024;7.540;2023-02-28T03:48:42;21.00;;;19.57;;
15454;SDS011;21057;51.024;7.540;2023-02-28T03:51:12;20.70;;;19.40;;
15454;SDS011;21057;51.024;7.540;2023-02-28T03:53:45;20.87;;;19.57;;
15454;SDS011;21057;51.024;7.540;2023-02-28T03:56:20;20.67;;;19.37;;
15454;SDS011;21057;51.024;7.540;2023-02-28T03:58:51;20.77;;;19.47;;
15454;SDS011;21057;51.024;7.540;2023-02-28T04:01:22;21.30;;;19.83;;
15454;SDS011;21057;51.024;7.540;2023-02-28T04:03:53;20.57;;;19.37;;
15454;SDS011;21057;51.024;7.540;2023-02-28T04:06:20;21.53;;;20.03;;
15454;SDS011;21057;51.024;7.540;2023-02-28T04:08:50;21.10;;;19.80;;
15454;SDS011;21057;51.024;7.540;2023-02-28T04:11:22;21.03;;;19.73;;
15454;SDS011;21057;51.024;7.540;2023-02-28T04:13:53;20.77;;;19.47;;
15454;SDS011;21057;51.024;7.540;2023-02-28T04:16:19;21.23;;;19.93;;
15454;SDS011;21057;51.024;7.540;2023-02-28T04:18:46;20.57;;;19.37;;
15454;SDS011;21057;51.024;7.540;2023-02-28T04:21:23;20.40;;;19.20;;
15454;SDS011;21057;51.024;7.540;2023-02-28T04:23:51;20.03;;;18.77;;
15454;SDS011;21057;51.024;7.540;2023-02-28T04:26:18;20.43;;;19.20;;
15454;SDS011;21057;51.024;7.540;2023-02-28T04:28:47;20.70;;;19.40;;
15454;SDS011;21057;51.024;7.540;2023-02-28T04:31:14;21.77;;;20.07;;
15454;SDS011;21057;51.024;7.540;2023-02-28T04:33:40;21.50;;;20.20;;
15454;SDS011;21057;51.024;7.540;2023-02-28T04:36:07;21.63;;;20.33;;
15454;SDS011;21057;51.024;7.540;2023-02-28T04:38:35;21.67;;;20.17;;
15454;SDS011;21057;51.024;7.540;2023-02-28T04:41:05;21.23;;;20.00;;
15454;SDS011;21057;51.024;7.540;2023-02-28T04:43:32;20.80;;;19.30;;
15454;SDS011;21057;51.024;7.540;2023-02-28T04:46:00;20.70;;;19.40;;
15454;SDS011;21057;51.024;7.540;2023-02-28T04:48:28;20.10;;;18.90;;
15454;SDS011;21057;51.024;7.540;2023-02-28T04:50:59;21.50;;;20.20;;
15454;SDS011;21057;51.024;7.540;2023-02-28T04:53:26;21.30;;;20.00;;
15454;SDS011;21057;51.024;7.540;2023-02-28T04:58:37;21.00;;;19.70;;
15454;SDS011;21057;51.024;7.540;2023-02-28T05:01:05;21.03;;;19.73;;
15454;SDS011;21057;51.024;7.540;2023-02-28T05:03:41;21.40;;;20.10;;
15454;SDS011;21057;51.024;7.540;2023-02-28T05:06:08;20.73;;;19.53;;
15454;SDS011;21057;51.024;7.540;2023-02-28T05:08:36;21.40;;;20.10;;
15454;SDS011;21057;51.024;7.540;2023-02-28T05:11:03;20.43;;;19.23;;
15454;SDS011;21057;51.024;7.540;2023-02-28T05:13:33;21.13;;;19.93;;
15454;SDS011;21057;51.024;7.540;2023-02-28T05:16:00;22.10;;;20.80;;
15454;SDS011;21057;51.024;7.540;2023-02-28T05:18:28;21.47;;;20.17;;
15454;SDS011;21057;51.024;7.540;2023-02-28T05:20:55;21.10;;;19.80;;
15454;SDS011;21057;51.024;7.540;2023-02-28T05:23:22;21.23;;;19.93;;
15454;SDS011;21057;51.024;7.540;2023-02-28T05:25:53;21.10;;;19.83;;
15454;SDS011;21057;51.024;7.540;2023-02-28T05:28:20;20.60;;;19.40;;
15454;SDS011;21057;51.024;7.540;2023-02-28T05:30:48;20.57;;;19.37;;
15454;SDS011;21057;51.024;7.540;2023-02-28T05:33:15;20.23;;;19.03;;
15454;SDS011;21057;51.024;7.540;2023-02-28T05:35:42;21.17;;;19.77;;
15454;SDS011;21057;51.024;7.540;2023-02-28T05:38:09;21.07;;;19.77;;
15454;SDS011;21057;51.024;7.540;2023-02-28T05:40:37;21.27;;;19.93;;
15454;SDS011;21057;51.024;7.540;2023-02-28T05:43:04;19.90;;;18.70;;
15454;SDS011;21057;51.024;7.540;2023-02-28T05:45:32;20.43;;;19.23;;
15454;SDS011;21057;51.024;7.540;2023-02-28T05:48:00;20.30;;;19.00;;
15454;SDS011;21057;51.024;7.540;2023-02-28T05:50:27;20.00;;;18.80;;
15454;SDS011;21057;51.024;7.540;2023-02-28T05:53:04;20.73;;;19.43;;
15454;SDS011;21057;51.024;7.540;2023-02-28T05:55:30;20.47;;;19.27;;
15454;SDS011;21057;51.024;7.540;2023-02-28T05:57:57;20.60;;;19.40;;
15454;SDS011;21057;51.024;7.540;2023-02-28T06:00:24;20.73;;;19.47;;
15454;SDS011;21057;51.024;7.540;2023-02-28T06:02:51;20.47;;;19.27;;
15454;SDS011;21057;51.024;7.540;2023-02-28T06:05:22;20.57;;;19.37;;
15454;SDS011;21057;51.024;7.540;2023-02-28T06:07:49;20.80;;;19.50;;
15454;SDS011;21057;51.024;7.540;2023-02-28T06:10:16;20.63;;;19.23;;
15454;SDS011;21057;51.024;7.540;2023-02-28T06:12:51;21.10;;;19.80;;
15454;SDS011;21057;51.024;7.540;2023-02-28T06:15:18;21.20;;;19.90;;
15454;SDS011;21057;51.024;7.540;2023-02-28T06:17:45;21.20;;;19.90;;
15454;SDS011;21057;51.024;7.540;2023-02-28T06:20:24;20.87;;;19.67;;
15454;SDS011;21057;51.024;7.540;2023-02-28T06:22:55;20.53;;;19.33;;
15454;SDS011;21057;51.024;7.540;2023-02-28T06:25:23;20.50;;;19.30;;
15454;SDS011;21057;51.024;7.540;2023-02-28T06:27:50;21.33;;;20.03;;
15454;SDS011;21057;51.024;7.540;2023-02-28T06:30:17;20.30;;;19.10;;
15454;SDS011;21057;51.024;7.540;2023-02-28T06:32:48;20.57;;;19.37;;
15454;SDS011;21057;51.024;7.540;2023-02-28T06:35:24;20.80;;;19.60;;
15454;SDS011;21057;51.024;7.540;2023-02-28T06:37:51;19.77;;;18.57;;
15454;SDS011;21057;51.024;7.540;2023-02-28T06:40:18;20.07;;;18.87;;
15454;SDS011;21057;51.024;7.540;2023-02-28T06:42:53;19.80;;;18.60;;
15454;SDS011;21057;51.024;7.540;2023-02-28T06:45:27;20.07;;;18.87;;
15454;SDS011;21057;51.024;7.540;2023-02-28T06:48:00;20.10;;;18.90;;
15454;SDS011;21057;51.024;7.540;2023-02-28T06:50:28;20.17;;;18.97;;
15454;SDS011;21057;51.024;7.540;2023-02-28T06:52:55;20.27;;;18.97;;
15454;SDS011;21057;51.024;7.540;2023-02-28T06:55:22;19.20;;;18.10;;
15454;SDS011;21057;51.024;7.540;2023-02-28T06:57:49;19.40;;;18.30;;
15454;SDS011;21057;51.024;7.540;2023-02-28T07:00:16;19.50;;;18.40;;
15454;SDS011;21057;51.024;7.540;2023-02-28T07:02:45;20.13;;;18.83;;
15454;SDS011;21057;51.024;7.540;2023-02-28T07:05:14;20.50;;;19.20;;
15454;SDS011;21057;51.024;7.540;2023-02-28T07:07:42;20.00;;;18.80;;
15454;SDS011;21057;51.024;7.540;2023-02-28T07:10:11;20.20;;;18.90;;
15454;SDS011;21057;51.024;7.540;2023-02-28T07:12:41;20.30;;;19.10;;
15454;SDS011;21057;51.024;7.540;2023-02-28T07:15:09;20.20;;;19.00;;
15454;SDS011;21057;51.024;7.540;2023-02-28T07:17:39;19.70;;;18.50;;
15454;SDS011;21057;51.024;7.540;2023-02-28T07:20:06;19.67;;;18.47;;
15454;SDS011;21057;51.024;7.540;2023-02-28T07:22:34;20.03;;;18.83;;
15454;SDS011;21057;51.024;7.540;2023-02-28T07:25:02;19.53;;;18.33;;
15454;SDS011;21057;51.024;7.540;2023-02-28T07:27:29;19.93;;;18.73;;
15454;SDS011;21057;51.024;7.540;2023-02-28T07:29:55;20.17;;;18.97;;
15454;SDS011;21057;51.024;7.540;2023-02-28T07:32:26;20.60;;;19.40;;
15454;SDS011;21057;51.024;7.540;2023-02-28T07:34:53;20.20;;;19.00;;
15454;SDS011;21057;51.024;7.540;2023-02-28T07:37:20;20.40;;;19.20;;
15454;SDS011;21057;51.024;7.540;2023-02-28T07:39:48;20.40;;;19.20;;
15454;SDS011;21057;51.024;7.540;2023-02-28T07:42:24;20.30;;;19.00;;
15454;SDS011;21057;51.024;7.540;2023-02-28T07:44:51;20.27;;;19.07;;
15454;SDS011;21057;51.024;7.540;2023-02-28T07:47:18;21.47;;;19.90;;
15454;SDS011;21057;51.024;7.540;2023-02-28T07:49:45;20.87;;;19.57;;
15454;SDS011;21057;51.024;7.540;2023-02-28T07:52:12;21.60;;;19.90;;
15454;SDS011;21057;51.024;7.540;2023-02-28T07:54:39;20.67;;;19.47;;
15454;SDS011;21057;51.024;7.540;2023-02-28T07:57:06;20.17;;;18.97;;
15454;SDS011;21057;51.024;7.540;2023-02-28T07:59:34;20.63;;;19.33;;
15454;SDS011;21057;51.024;7.540;2023-02-28T08:02:11;20.47;;;19.07;;
15454;SDS011;21057;51.024;7.540;2023-02-28T08:04:53;20.50;;;19.00;;
15454;SDS011;21057;51.024;7.540;2023-02-28T08:07:26;19.73;;;18.43;;
15454;SDS011;21057;51.024;7.540;2023-02-28T08:09:53;21.20;;;19.70;;
15454;SDS011;21057;51.024;7.540;2023-02-28T08:12:20;20.60;;;19.30;;
15454;SDS011;21057;51.024;7.540;2023-02-28T08:14:55;20.37;;;19.07;;
15454;SDS011;21057;51.024;7.540;2023-02-28T08:19:56;19.50;;;18.30;;
15454;SDS011;21057;51.024;7.540;2023-02-28T08:22:25;20.17;;;18.97;;
15454;SDS011;21057;51.024;7.540;2023-02-28T08:24:56;21.00;;;19.60;;
15454;SDS011;21057;51.024;7.540;2023-02-28T08:27:23;19.60;;;18.40;;
15454;SDS011;21057;51.024;7.540;2023-02-28T08:29:49;20.17;;;18.97;;
15454;SDS011;21057;51.024;7.540;2023-02-28T08:32:18;20.70;;;19.40;;
15454;SDS011;21057;51.024;7.540;2023-02-28T08:34:45;21.13;;;19.83;;
15454;SDS011;21057;51.024;7.540;2023-02-28T08:37:12;20.60;;;19.30;;
15454;SDS011;21057;51.024;7.540;2023-02-28T08:39:39;21.20;;;19.63;;
15454;SDS011;21057;51.024;7.540;2023-02-28T08:42:06;20.80;;;19.50;;
15454;SDS011;21057;51.024;7.540;2023-02-28T08:44:33;20.43;;;19.13;;
15454;SDS011;21057;51.024;7.540;2023-02-28T08:47:00;21.00;;;19.70;;
15454;SDS011;21057;51.024;7.540;2023-02-28T08:49:28;20.20;;;18.90;;
15454;SDS011;21057;51.024;7.540;2023-02-28T08:51:55;20.40;;;19.10;;
15454;SDS011;21057;51.024;7.540;2023-02-28T08:54:24;20.93;;;19.57;;
15454;SDS011;21057;51.024;7.540;2023-02-28T08:56:52;20.13;;;18.83;;
15454;SDS011;21057;51.024;7.540;2023-02-28T08:59:24;20.17;;;18.97;;
15454;SDS011;21057;51.024;7.540;2023-02-28T09:01:51;20.73;;;19.43;;
15454;SDS011;21057;51.024;7.540;2023-02-28T09:04:19;20.70;;;19.40;;
15454;SDS011;21057;51.024;7.540;2023-02-28T09:06:48;20.80;;;19.40;;
15454;SDS011;21057;51.024;7.540;2023-02-28T09:09:21;20.60;;;19.30;;
15454;SDS011;21057;51.024;7.540;2023-02-28T09:11:48;20.53;;;19.33;;
15454;SDS011;21057;51.024;7.540;2023-02-28T09:16:52;20.23;;;19.03;;
15454;SDS011;21057;51.024;7.540;2023-02-28T09:19:19;21.80;;;20.37;;
15454;SDS011;21057;51.024;7.540;2023-02-28T09:21:49;20.30;;;19.07;;
15454;SDS011;21057;51.024;7.540;2023-02-28T09:24:17;20.27;;;18.97;;
15454;SDS011;21057;51.024;7.540;2023-02-28T09:26:57;20.30;;;19.00;;
15454;SDS011;21057;51.024;7.540;2023-02-28T09:29:34;20.13;;;18.83;;
15454;SDS011;21057;51.024;7.540;2023-02-28T09:32:01;19.80;;;18.57;;
15454;SDS011;21057;51.024;7.540;2023-02-28T09:34:30;19.90;;;18.60;;
15454;SDS011;21057;51.024;7.540;2023-02-28T09:36:58;20.40;;;19.10;;
15454;SDS011;21057;51.024;7.540;2023-02-28T09:39:33;19.67;;;18.37;;
15454;SDS011;21057;51.024;7.540;2023-02-28T09:42:01;20.20;;;18.90;;
15454;SDS011;21057;51.024;7.540;2023-02-28T09:44:37;20.00;;;18.70;;
15454;SDS011;21057;51.024;7.540;2023-02-28T09:47:21;19.37;;;18.07;;
15454;SDS011;21057;51.024;7.540;2023-02-28T09:50:03;19.93;;;18.63;;
15454;SDS011;21057;51.024;7.540;2023-02-28T09:52:44;19.60;;;18.40;;
15454;SDS011;21057;51.024;7.540;2023-02-28T09:55:22;20.00;;;18.80;;
15454;SDS011;21057;51.024;7.540;2023-02-28T09:58:05;20.30;;;18.93;;
15454;SDS011;21057;51.024;7.540;2023-02-28T10:00:47;19.70;;;18.50;;
15454;SDS011;21057;51.024;7.540;2023-02-28T10:03:25;19.63;;;18.40;;
15454;SDS011;21057;51.024;7.540;2023-02-28T10:05:59;19.87;;;18.57;;
15454;SDS011;21057;51.024;7.540;2023-02-28T10:08:34;20.43;;;18.73;;
15454;SDS011;21057;51.024;7.540;2023-02-28T10:11:24;20.13;;;18.83;;
15454;SDS011;21057;51.024;7.540;2023-02-28T10:14:00;20.70;;;19.30;;
15454;SDS011;21057;51.024;7.540;2023-02-28T10:16:33;20.67;;;19.37;;
15454;SDS011;21057;51.024;7.540;2023-02-28T10:19:03;20.80;;;19.30;;
15454;SDS011;21057;51.024;7.540;2023-02-28T10:21:37;21.00;;;19.60;;
15454;SDS011;21057;51.024;7.540;2023-02-28T10:24:13;20.50;;;19.20;;
15454;SDS011;21057;51.024;7.540;2023-02-28T10:26:47;21.20;;;19.80;;
15454;SDS011;21057;51.024;7.540;2023-02-28T10:29:14;21.20;;;19.70;;
15454;SDS011;21057;51.024;7.540;2023-02-28T10:31:41;20.27;;;18.97;;
15454;SDS011;21057;51.024;7.540;2023-02-28T10:34:08;20.93;;;19.63;;
15454;SDS011;21057;51.024;7.540;2023-02-28T10:36:38;20.40;;;19.10;;
15454;SDS011;21057;51.024;7.540;2023-02-28T10:42:18;20.07;;;18.77;;
15454;SDS011;21057;51.024;7.540;2023-02-28T10:44:46;20.03;;;18.73;;
15454;SDS011;21057;51.024;7.540;2023-02-28T10:47:14;20.37;;;18.97;;
15454;SDS011;21057;51.024;7.540;2023-02-28T10:49:46;21.10;;;19.57;;
15454;SDS011;21057;51.024;7.540;2023-02-28T10:52:14;20.07;;;18.77;;
15454;SDS011;21057;51.024;7.540;2023-02-28T10:55:15;20.53;;;19.03;;
15454;SDS011;21057;51.024;7.540;2023-02-28T10:57:48;20.73;;;19.43;;
15454;SDS011;21057;51.024;7.540;2023-02-28T11:00:16;21.10;;;19.60;;
15454;SDS011;21057;51.024;7.540;2023-02-28T11:02:46;20.77;;;19.47;;
15454;SDS011;21057;51.024;7.540;2023-02-28T11:05:23;20.80;;;19.30;;
15454;SDS011;21057;51.024;7.540;2023-02-28T11:07:51;20.93;;;19.53;;
15454;SDS011;21057;51.024;7.540;2023-02-28T11:10:21;21.30;;;19.70;;
15454;SDS011;21057;51.024;7.540;2023-02-28T11:12:54;20.53;;;19.23;;
15454;SDS011;21057;51.024;7.540;2023-02-28T11:15:23;20.27;;;18.97;;
15454;SDS011;21057;51.024;7.540;2023-02-28T11:18:08;20.17;;;18.93;;
15454;SDS011;21057;51.024;7.540;2023-02-28T11:20:49;20.23;;;18.73;;
15454;SDS011;21057;51.024;7.540;2023-02-28T11:23:35;20.93;;;19.53;;
15454;SDS011;21057;51.024;7.540;2023-02-28T11:26:07;20.10;;;18.80;;
15454;SDS011;21057;51.024;7.540;2023-02-28T11:28:37;20.27;;;18.97;;
15454;SDS011;21057;51.024;7.540;2023-02-28T11:31:13;20.70;;;19.30;;
15454;SDS011;21057;51.024;7.540;2023-02-28T11:33:45;21.03;;;19.63;;
15454;SDS011;21057;51.024;7.540;2023-02-28T11:36:17;21.10;;;19.60;;
15454;SDS011;21057;51.024;7.540;2023-02-28T11:38:47;20.77;;;19.30;;
15454;SDS011;21057;51.024;7.540;2023-02-28T11:41:32;20.63;;;19.27;;
15454;SDS011;21057;51.024;7.540;2023-02-28T11:44:17;20.70;;;19.30;;
15454;SDS011;21057;51.024;7.540;2023-02-28T11:46:49;21.07;;;19.63;;
15454;SDS011;21057;51.024;7.540;2023-02-28T11:49:26;21.40;;;19.90;;
15454;SDS011;21057;51.024;7.540;2023-02-28T11:52:03;21.10;;;19.70;;
15454;SDS011;21057;51.024;7.540;2023-02-28T11:54:59;20.30;;;18.90;;
15454;SDS011;21057;51.024;7.540;2023-02-28T12:01:01;20.50;;;19.20;;
15454;SDS011;21057;51.024;7.540;2023-02-28T12:06:45;20.97;;;19.57;;
15454;SDS011;21057;51.024;7.540;2023-02-28T12:09:40;20.87;;;19.47;;
15454;SDS011;21057;51.024;7.540;2023-02-28T12:12:36;21.03;;;19.50;;
15454;SDS011;21057;51.024;7.540;2023-02-28T12:15:35;21.63;;;20.23;;
15454;SDS011;21057;51.024;7.540;2023-02-28T12:20:54;21.43;;;19.93;;
15454;SDS011;21057;51.024;7.540;2023-02-28T12:23:43;21.87;;;20.37;;
15454;SDS011;21057;51.024;7.540;2023-02-28T12:26:23;19.90;;;18.63;;
15454;SDS011;21057;51.024;7.540;2023-02-28T12:28:59;21.10;;;19.70;;
15454;SDS011;21057;51.024;7.540;2023-02-28T12:31:33;20.60;;;19.30;;
15454;SDS011;21057;51.024;7.540;2023-02-28T12:34:12;21.20;;;19.80;;
15454;SDS011;21057;51.024;7.540;2023-02-28T12:36:42;20.90;;;19.50;;
15454;SDS011;21057;51.024;7.540;2023-02-28T12:39:12;20.40;;;18.80;;
15454;SDS011;21057;51.024;7.540;2023-02-28T12:41:53;20.23;;;18.83;;
15454;SDS011;21057;51.024;7.540;2023-02-28T12:44:30;20.33;;;19.03;;
15454;SDS011;21057;51.024;7.540;2023-02-28T12:47:05;20.10;;;18.90;;
15454;SDS011;21057;51.024;7.540;2023-02-28T12:49:49;21.13;;;19.53;;
15454;SDS011;21057;51.024;7.540;2023-02-28T12:52:25;20.33;;;19.03;;
15454;SDS011;21057;51.024;7.540;2023-02-28T12:55:00;20.37;;;19.07;;
15454;SDS011;21057;51.024;7.540;2023-02-28T12:57:35;20.57;;;19.27;;
15454;SDS011;21057;51.024;7.540;2023-02-28T13:00:10;20.20;;;18.90;;
15454;SDS011;21057;51.024;7.540;2023-02-28T13:02:48;21.90;;;20.40;;
15454;SDS011;21057;51.024;7.540;2023-02-28T13:08:50;21.03;;;19.57;;
15454;SDS011;21057;51.024;7.540;2023-02-28T13:11:38;21.47;;;20.07;;
15454;SDS011;21057;51.024;7.540;2023-02-28T13:14:22;21.27;;;19.87;;
15454;SDS011;21057;51.024;7.540;2023-02-28T13:16:55;21.83;;;20.43;;
15454;SDS011;21057;51.024;7.540;2023-02-28T13:19:27;20.87;;;19.37;;
15454;SDS011;21057;51.024;7.540;2023-02-28T13:21:55;20.63;;;19.30;;
15454;SDS011;21057;51.024;7.540;2023-02-28T13:24:37;21.70;;;20.30;;
15454;SDS011;21057;51.024;7.540;2023-02-28T13:27:21;22.43;;;21.03;;
15454;SDS011;21057;51.024;7.540;2023-02-28T13:29:50;22.80;;;21.10;;
15454;SDS011;21057;51.024;7.540;2023-02-28T13:44:15;21.13;;;19.83;;
15454;SDS011;21057;51.024;7.540;2023-02-28T13:52:55;21.57;;;19.93;;
15454;SDS011;21057;51.024;7.540;2023-02-28T13:55:41;21.70;;;20.20;;
15454;SDS011;21057;51.024;7.540;2023-02-28T13:58:20;21.90;;;20.40;;
15454;SDS011;21057;51.024;7.540;2023-02-28T14:01:05;22.13;;;20.63;;
15454;SDS011;21057;51.024;7.540;2023-02-28T14:03:44;22.30;;;20.53;;
15454;SDS011;21057;51.024;7.540;2023-02-28T14:06:25;22.33;;;20.73;;
15454;SDS011;21057;51.024;7.540;2023-02-28T14:08:57;22.30;;;20.70;;
15454;SDS011;21057;51.024;7.540;2023-02-28T14:11:30;21.80;;;20.40;;
15454;SDS011;21057;51.024;7.540;2023-02-28T14:14:01;21.63;;;20.23;;
15454;SDS011;21057;51.024;7.540;2023-02-28T14:16:35;22.53;;;20.67;;
15454;SDS011;21057;51.024;7.540;2023-02-28T14:19:10;22.27;;;20.63;;
15454;SDS011;21057;51.024;7.540;2023-02-28T14:21:43;21.80;;;20.30;;
15454;SDS011;21057;51.024;7.540;2023-02-28T14:24:28;22.97;;;21.00;;
15454;SDS011;21057;51.024;7.540;2023-02-28T14:27:15;20.73;;;19.23;;
15454;SDS011;21057;51.024;7.540;2023-02-28T14:30:09;21.93;;;20.43;;
15454;SDS011;21057;51.024;7.540;2023-02-28T14:32:47;21.77;;;20.03;;
15454;SDS011;21057;51.024;7.540;2023-02-28T14:35:26;21.23;;;19.63;;
15454;SDS011;21057;51.024;7.540;2023-02-28T14:38:07;22.23;;;20.63;;
15454;SDS011;21057;51.024;7.540;2023-02-28T14:40:44;22.30;;;20.80;;
15454;SDS011;21057;51.024;7.540;2023-02-28T14:43:18;22.13;;;20.70;;
15454;SDS011;21057;51.024;7.540;2023-02-28T14:45:49;22.67;;;21.13;;
15454;SDS011;21057;51.024;7.540;2023-02-28T14:48:25;22.80;;;21.13;;
15454;SDS011;21057;51.024;7.540;2023-02-28T14:50:53;22.13;;;20.67;;
15454;SDS011;21057;51.024;7.540;2023-02-28T14:53:22;22.87;;;21.07;;
15454;SDS011;21057;51.024;7.540;2023-02-28T14:56:03;22.00;;;20.43;;
15454;SDS011;21057;51.024;7.540;2023-02-28T14:58:32;21.87;;;20.37;;
15454;SDS011;21057;51.024;7.540;2023-02-28T15:01:01;21.47;;;20.07;;
15454;SDS011;21057;51.024;7.540;2023-02-28T15:03:30;22.67;;;20.93;;
15454;SDS011;21057;51.024;7.540;2023-02-28T15:05:59;20.90;;;19.50;;
15454;SDS011;21057;51.024;7.540;2023-02-28T15:08:35;21.13;;;19.83;;
15454;SDS011;21057;51.024;7.540;2023-02-28T15:11:14;21.63;;;20.23;;
15454;SDS011;21057;51.024;7.540;2023-02-28T15:13:45;21.43;;;20.03;;
15454;SDS011;21057;51.024;7.540;2023-02-28T15:16:19;22.00;;;20.40;;
15454;SDS011;21057;51.024;7.540;2023-02-28T15:18:49;22.07;;;20.50;;
15454;SDS011;21057;51.024;7.540;2023-02-28T15:21:19;20.70;;;19.30;;
15454;SDS011;21057;51.024;7.540;2023-02-28T15:23:49;20.80;;;19.40;;
15454;SDS011;21057;51.024;7.540;2023-02-28T15:26:22;21.00;;;19.50;;
15454;SDS011;21057;51.024;7.540;2023-02-28T15:28:54;20.67;;;19.37;;
15454;SDS011;21057;51.024;7.540;2023-02-28T15:31:26;20.87;;;19.47;;
15454;SDS011;21057;51.024;7.540;2023-02-28T15:34:15;20.43;;;19.07;;
15454;SDS011;21057;51.024;7.540;2023-02-28T15:36:46;21.33;;;19.73;;
15454;SDS011;21057;51.024;7.540;2023-02-28T15:39:20;20.00;;;18.70;;
15454;SDS011;21057;51.024;7.540;2023-02-28T15:41:50;20.57;;;19.27;;